SPK weather

Spanish Fork-Springville-Woodhouse Field Airport
Spanish Fork, Utah, United States

Public forecast

Using degrees Fahrenheit for public forecast. Weather courtesy of forecast.io.

Closest aviation weather report (METAR) to Spanish Fork-Springville-Woodhouse Field Airport

Closest report is Provo Municipal Airport, 5.1 nm (9.5 km) NNW. Retrieved 2020/07/06 23:56 UTC (14 minutes ago):

KPVU 062356Z 00000KT 10SM SCT120 36/M03 A2990 RMK AO2 SLP061 T03611033 10367 20272 58021

Closest aviation forecast (TAF) to Spanish Fork-Springville-Woodhouse Field Airport

Closest forecast is Provo Municipal Airport, 5.1 nm (9.5 km) NNW. Retrieved 2020-07-07 00:33 UTC (0 seconds ago):

TAF KPVU 062330Z 0700/0724 25007KT P6SM FEW120 FM070400 16006KT P6SM FEW150 FM071600 22010KT P6SM FEW150 FM072100 27012G20KT P6SM SKC